createdAt,value
2022-09-10T00:02:27.706Z,10.95
2022-09-10T00:05:18.296Z,11.55
2022-09-10T00:08:07.413Z,9.05
2022-09-10T00:10:57.890Z,11.85
2022-09-10T00:13:46.979Z,13.88
2022-09-10T00:16:36.505Z,11.50
2022-09-10T00:19:25.798Z,10.93
2022-09-10T00:22:15.256Z,12.73
2022-09-10T00:25:08.214Z,12.43
2022-09-10T00:28:00.394Z,15.52
2022-09-10T00:30:51.862Z,12.35
2022-09-10T00:33:42.006Z,10.55
2022-09-10T00:36:33.303Z,11.30
2022-09-10T00:39:22.192Z,10.82
2022-09-10T00:42:13.494Z,10.13
2022-09-10T00:45:06.030Z,12.73
2022-09-10T00:47:57.451Z,10.90
2022-09-10T00:50:48.742Z,13.77
2022-09-10T00:53:38.462Z,10.73
2022-09-10T00:56:27.512Z,11.57
2022-09-10T00:59:20.674Z,10.70
2022-09-10T01:02:11.911Z,10.50
2022-09-10T01:05:01.916Z,10.57
2022-09-10T01:07:53.309Z,8.52
2022-09-10T01:10:52.378Z,13.90
2022-09-10T01:13:59.123Z,11.48
2022-09-10T01:16:55.745Z,11.38
2022-09-10T01:20:20.707Z,10.50
2022-09-10T01:23:57.591Z,11.07
2022-09-10T01:27:04.422Z,10.10
2022-09-10T01:30:00.439Z,10.30
2022-09-10T01:32:59.773Z,10.32
2022-09-10T01:35:52.606Z,11.57
2022-09-10T01:38:43.407Z,14.13
2022-09-10T01:41:34.575Z,12.88
2022-09-10T01:44:42.876Z,11.82
2022-09-10T01:47:55.602Z,8.43
2022-09-10T01:50:50.910Z,8.15
2022-09-10T01:54:00.445Z,11.32
2022-09-10T01:56:55.526Z,10.05
2022-09-10T01:59:54.014Z,8.35
2022-09-10T02:02:50.089Z,8.43
2022-09-10T02:05:41.249Z,8.00
2022-09-10T02:08:34.294Z,8.32
2022-09-10T02:11:23.711Z,10.35
2022-09-10T02:14:14.482Z,9.65
2022-09-10T02:17:03.794Z,7.18
2022-09-10T02:19:56.290Z,9.52
2022-09-10T02:22:50.199Z,6.72
2022-09-10T02:25:39.006Z,7.18
2022-09-10T02:28:28.937Z,9.48
2022-09-10T02:31:18.902Z,8.45
2022-09-10T02:34:07.775Z,6.93
2022-09-10T02:36:58.613Z,6.07
2022-09-10T02:39:47.719Z,7.93
2022-09-10T02:42:37.698Z,8.27
2022-09-10T02:45:27.308Z,7.82
2022-09-10T02:48:18.412Z,10.40
2022-09-10T02:51:07.522Z,7.82
2022-09-10T02:53:58.292Z,7.40
2022-09-10T02:56:48.151Z,8.30
2022-09-10T02:59:37.751Z,5.63
2022-09-10T03:02:27.551Z,9.48
2022-09-10T03:05:16.586Z,7.90
2022-09-10T03:08:06.379Z,8.27
2022-09-10T03:10:59.794Z,8.38
2022-09-10T03:13:50.537Z,6.68
2022-09-10T03:16:40.209Z,10.73
2022-09-10T03:19:28.721Z,8.43
2022-09-10T03:22:17.490Z,11.05
2022-09-10T03:25:08.350Z,8.02
2022-09-10T03:28:00.091Z,7.80
2022-09-10T03:30:49.040Z,10.02
2022-09-10T03:33:38.640Z,6.95
2022-09-10T03:36:29.693Z,5.95
2022-09-10T03:39:18.903Z,9.02
2022-09-10T03:42:08.566Z,6.25
2022-09-10T03:44:59.443Z,7.85
2022-09-10T03:47:49.201Z,7.63
2022-09-10T03:50:38.404Z,10.80
2022-09-10T03:53:27.025Z,9.18
2022-09-10T03:56:20.239Z,9.88
2022-09-10T03:59:09.755Z,6.97
2022-09-10T04:02:00.405Z,6.63
2022-09-10T04:04:50.273Z,7.43
2022-09-10T04:07:39.334Z,9.57
2022-09-10T04:10:29.261Z,6.15
2022-09-10T04:13:18.298Z,5.70
2022-09-10T04:16:07.761Z,6.68
2022-09-10T04:18:58.469Z,5.95
2022-09-10T04:21:47.735Z,7.80
2022-09-10T04:24:36.974Z,6.63
2022-09-10T04:27:26.911Z,7.20
2022-09-10T04:30:16.306Z,7.38
2022-09-10T04:33:05.685Z,8.10
2022-09-10T04:35:56.591Z,6.05
2022-09-10T04:38:45.783Z,6.13
2022-09-10T04:41:34.933Z,8.07
2022-09-10T04:44:24.018Z,10.38
2022-09-10T04:47:12.834Z,7.72
2022-09-10T04:50:01.851Z,6.88
2022-09-10T04:52:52.372Z,7.22
2022-09-10T04:55:44.795Z,6.63
2022-09-10T04:58:38.460Z,5.57
2022-09-10T05:01:29.069Z,9.55
2022-09-10T05:04:17.856Z,6.82
2022-09-10T05:07:07.146Z,5.40
2022-09-10T05:09:57.411Z,5.90
2022-09-10T05:12:47.063Z,6.82
2022-09-10T05:15:36.317Z,7.10
2022-09-10T05:18:26.013Z,7.82
2022-09-10T05:21:15.006Z,5.93
2022-09-10T05:24:03.999Z,7.43
2022-09-10T05:26:54.736Z,6.45
2022-09-10T05:29:43.328Z,7.55
2022-09-10T05:32:32.986Z,9.10
2022-09-10T05:35:21.848Z,9.13
2022-09-10T05:38:13.057Z,5.53
2022-09-10T05:41:02.894Z,7.63
2022-09-10T05:43:53.677Z,7.50
2022-09-10T05:46:43.111Z,7.70
2022-09-10T05:49:32.023Z,6.07
2022-09-10T05:52:22.170Z,6.97
2022-09-10T05:55:12.439Z,6.53
2022-09-10T05:58:02.992Z,8.27
2022-09-10T06:00:54.980Z,6.47
2022-09-10T06:03:44.565Z,12.77
2022-09-10T06:06:33.624Z,8.93
2022-09-10T06:09:23.259Z,6.72
2022-09-10T06:12:12.026Z,6.30
2022-09-10T06:15:00.924Z,8.15
2022-09-10T06:17:55.365Z,7.90
2022-09-10T06:20:44.703Z,8.95
2022-09-10T06:23:33.396Z,6.82
2022-09-10T06:26:22.892Z,9.13
2022-09-10T06:29:12.965Z,11.38
2022-09-10T06:32:02.311Z,11.73
2022-09-10T06:34:52.510Z,10.68
2022-09-10T06:37:41.814Z,13.82
2022-09-10T06:40:31.186Z,14.57
2022-09-10T06:43:20.423Z,11.60
2022-09-10T06:46:40.630Z,12.77
2022-09-10T06:49:24.125Z,13.30
2022-09-10T06:52:13.974Z,11.98
2022-09-10T06:55:03.102Z,15.35
2022-09-10T06:57:51.977Z,15.35
2022-09-10T07:00:41.747Z,10.13
2022-09-10T07:03:30.557Z,12.15
2022-09-10T07:06:20.937Z,9.70
2022-09-10T07:09:11.048Z,15.88
2022-09-10T07:12:00.521Z,12.50
2022-09-10T07:14:49.774Z,11.75
2022-09-10T07:17:39.508Z,10.38
2022-09-10T07:20:31.034Z,13.70
2022-09-10T07:23:22.110Z,11.77
2022-09-10T07:26:15.147Z,8.18
2022-09-10T07:29:04.565Z,5.70
2022-09-10T07:31:53.614Z,7.47
2022-09-10T07:34:43.429Z,10.90
2022-09-10T07:37:32.526Z,7.03
2022-09-10T07:40:23.526Z,7.50
2022-09-10T07:43:15.698Z,6.03
2022-09-10T07:46:04.804Z,8.45
2022-09-10T07:48:56.697Z,5.82
2022-09-10T07:51:46.072Z,9.23
2022-09-10T07:54:35.258Z,4.57
2022-09-10T07:57:24.596Z,8.45
2022-09-10T08:00:18.772Z,6.75
2022-09-10T08:03:07.724Z,3.58
2022-09-10T08:05:56.695Z,7.50
2022-09-10T08:08:45.779Z,4.55
2022-09-10T08:11:35.007Z,5.05
2022-09-10T08:14:24.281Z,8.15
2022-09-10T08:17:15.125Z,7.18
2022-09-10T08:20:06.752Z,6.43
2022-09-10T08:22:58.657Z,10.13
2022-09-10T08:25:51.696Z,6.75
2022-09-10T08:28:41.693Z,5.82
2022-09-10T08:31:30.681Z,7.28
2022-09-10T08:34:21.430Z,9.98
2022-09-10T08:37:10.493Z,5.75
2022-09-10T08:39:59.795Z,8.10
2022-09-10T08:42:50.625Z,7.15
2022-09-10T08:45:40.563Z,5.88
2022-09-10T08:48:32.644Z,4.85
2022-09-10T08:51:29.423Z,4.53
2022-09-10T08:54:21.576Z,6.60
2022-09-10T08:57:23.880Z,6.32
2022-09-10T09:00:26.471Z,3.83
2022-09-10T09:03:23.100Z,6.38
2022-09-10T09:06:26.940Z,3.42
2022-09-10T09:09:16.879Z,4.95
2022-09-10T09:12:17.106Z,5.43
2022-09-10T09:15:12.871Z,5.65
2022-09-10T09:18:19.539Z,5.70
2022-09-10T09:21:17.920Z,4.38
2022-09-10T09:24:18.274Z,4.38
2022-09-10T09:27:13.088Z,2.90
2022-09-10T09:30:05.037Z,2.22
2022-09-10T09:32:55.828Z,4.13
2022-09-10T09:35:49.013Z,3.75
2022-09-10T09:38:41.541Z,3.60
2022-09-10T09:41:37.510Z,2.20
2022-09-10T09:44:28.874Z,3.92
2022-09-10T09:47:18.581Z,3.47
2022-09-10T09:50:08.425Z,5.18
2022-09-10T09:52:57.766Z,2.90
2022-09-10T09:55:48.901Z,5.20
2022-09-10T09:58:40.257Z,3.42
2022-09-10T10:01:42.755Z,4.82
2022-09-10T10:04:34.995Z,5.22
2022-09-10T10:07:31.759Z,2.55
2022-09-10T10:10:25.815Z,1.38
2022-09-10T10:13:22.705Z,2.55
2022-09-10T10:16:23.659Z,2.95
2022-09-10T10:19:29.654Z,5.30
2022-09-10T10:22:23.389Z,3.25
2022-09-10T10:25:48.956Z,3.60
2022-09-10T10:28:38.016Z,3.38
2022-09-10T10:31:40.095Z,3.88
2022-09-10T10:34:45.565Z,5.22
2022-09-10T10:37:42.256Z,5.95
2022-09-10T10:40:35.095Z,3.05
2022-09-10T10:43:32.390Z,4.85
2022-09-10T10:46:23.137Z,3.20
2022-09-10T10:49:25.788Z,4.60
2022-09-10T10:52:20.233Z,1.75
2022-09-10T10:55:17.551Z,2.42
2022-09-10T10:58:21.886Z,2.90
2022-09-10T11:01:17.561Z,2.20
2022-09-10T11:04:25.066Z,2.33
2022-09-10T11:07:19.821Z,3.72
2022-09-10T11:10:16.155Z,3.70
2022-09-10T11:13:13.846Z,3.28
2022-09-10T11:16:07.306Z,2.85
2022-09-10T11:19:03.024Z,1.92
2022-09-10T11:21:58.924Z,1.23
2022-09-10T11:24:52.636Z,3.55
2022-09-10T11:27:47.023Z,4.30
2022-09-10T11:30:40.156Z,2.45
2022-09-10T11:33:34.934Z,1.52
2022-09-10T11:36:29.948Z,5.45
2022-09-10T11:39:25.573Z,2.58
2022-09-10T11:42:21.564Z,2.05
2022-09-10T11:45:22.116Z,2.08
2022-09-10T11:48:17.816Z,4.22
2022-09-10T11:51:17.907Z,1.25
2022-09-10T11:54:13.317Z,1.65
2022-09-10T11:57:11.900Z,2.15
2022-09-10T12:00:08.832Z,2.70
2022-09-10T12:03:27.426Z,3.10
2022-09-10T12:06:22.359Z,2.65
2022-09-10T12:09:16.830Z,3.13
2022-09-10T12:12:15.183Z,2.47
2022-09-10T12:15:09.863Z,6.50
2022-09-10T12:18:04.244Z,1.70
2022-09-10T12:20:56.991Z,9.88
2022-09-10T12:23:46.536Z,4.80
2022-09-10T12:26:45.210Z,2.15
2022-09-10T12:29:38.301Z,2.53
2022-09-10T12:32:30.962Z,3.85
2022-09-10T12:35:48.787Z,1.77
2022-09-10T12:38:57.998Z,3.83
2022-09-10T12:42:02.045Z,3.40
2022-09-10T12:44:52.829Z,2.78
2022-09-10T12:47:50.561Z,2.67
2022-09-10T12:50:46.361Z,2.60
2022-09-10T12:54:17.629Z,1.92
2022-09-10T12:57:22.694Z,2.20
2022-09-10T13:00:23.892Z,1.80
2022-09-10T13:03:18.438Z,1.25
2022-09-10T13:06:09.785Z,1.77
2022-09-10T13:09:00.012Z,2.53
2022-09-10T13:11:53.430Z,1.92
2022-09-10T13:14:49.753Z,3.95
2022-09-10T13:18:01.767Z,1.30
2022-09-10T13:20:50.539Z,2.17
2022-09-10T13:23:49.691Z,2.63
2022-09-10T13:26:52.537Z,1.48
2022-09-10T13:29:44.355Z,1.48
2022-09-10T13:32:36.590Z,3.65
2022-09-10T13:36:05.681Z,3.25
2022-09-10T13:39:25.066Z,1.83
2022-09-10T13:42:18.318Z,2.10
2022-09-10T13:45:23.601Z,3.25
2022-09-10T13:48:15.031Z,3.80
2022-09-10T13:51:16.663Z,2.20
2022-09-10T13:54:08.749Z,2.55
2022-09-10T13:56:59.890Z,4.18
2022-09-10T13:59:51.877Z,2.58
2022-09-10T14:02:45.748Z,0.47
2022-09-10T14:05:39.416Z,1.60
2022-09-10T14:08:33.333Z,1.75
2022-09-10T14:11:25.625Z,2.60
2022-09-10T14:14:18.679Z,3.25
2022-09-10T14:17:12.138Z,2.15
2022-09-10T14:20:01.826Z,2.05
2022-09-10T14:22:51.362Z,1.15
2022-09-10T14:25:43.824Z,1.60
2022-09-10T14:28:33.052Z,5.03
2022-09-10T14:31:28.918Z,3.60
2022-09-10T14:34:32.664Z,4.43
2022-09-10T14:37:33.775Z,1.55
2022-09-10T14:40:24.457Z,9.23
2022-09-10T14:43:27.936Z,2.45
2022-09-10T14:46:56.514Z,2.58
2022-09-10T14:49:47.598Z,2.13
2022-09-10T14:52:37.643Z,1.75
2022-09-10T14:55:27.740Z,1.70
2022-09-10T14:58:18.090Z,4.50
2022-09-10T15:01:09.560Z,2.65
2022-09-10T15:03:59.537Z,1.55
2022-09-10T15:06:48.563Z,0.85
2022-09-10T15:09:37.808Z,2.75
2022-09-10T15:12:29.355Z,2.30
2022-09-10T15:15:20.240Z,2.28
2022-09-10T15:18:14.713Z,1.63
2022-09-10T15:21:06.271Z,2.13
2022-09-10T15:23:55.813Z,3.13
2022-09-10T15:26:45.525Z,3.53
2022-09-10T15:29:34.458Z,2.17
2022-09-10T15:32:25.180Z,2.55
2022-09-10T15:35:14.185Z,2.35
2022-09-10T15:38:03.401Z,1.40
2022-09-10T15:40:53.546Z,3.53
2022-09-10T15:43:44.237Z,2.90
2022-09-10T15:46:35.805Z,2.65
2022-09-10T15:49:27.044Z,2.67
2022-09-10T15:52:16.042Z,3.10
2022-09-10T15:55:07.069Z,2.40
2022-09-10T15:57:56.008Z,4.70
2022-09-10T16:00:45.335Z,2.60
2022-09-10T16:03:34.712Z,3.05
2022-09-10T16:06:27.595Z,4.63
2022-09-10T16:09:16.397Z,3.92
2022-09-10T16:12:05.682Z,2.45
2022-09-10T16:14:55.749Z,1.77
2022-09-10T16:17:44.754Z,3.05
2022-09-10T16:20:35.830Z,2.05
2022-09-10T16:23:25.955Z,3.38
2022-09-10T16:26:18.060Z,4.45
2022-09-10T16:29:09.179Z,2.33
2022-09-10T16:31:58.921Z,2.20
2022-09-10T16:34:47.700Z,2.55
2022-09-10T16:37:37.468Z,2.20
2022-09-10T16:40:28.355Z,3.55
2022-09-10T16:43:17.696Z,0.93
2022-09-10T16:46:09.304Z,1.63
2022-09-10T16:48:59.526Z,4.45
2022-09-10T16:51:50.808Z,2.75
2022-09-10T16:54:40.437Z,2.88
2022-09-10T16:57:32.513Z,8.65
2022-09-10T17:00:22.595Z,6.90
2022-09-10T17:03:11.610Z,6.60
2022-09-10T17:06:01.403Z,2.83
2022-09-10T17:08:50.713Z,13.38
2022-09-10T17:11:39.693Z,3.50
2022-09-10T17:14:30.596Z,4.13
2022-09-10T17:17:20.482Z,9.32
2022-09-10T17:20:11.317Z,4.07
2022-09-10T17:23:00.287Z,3.30
2022-09-10T17:25:50.011Z,4.30
2022-09-10T17:28:40.367Z,4.68
2022-09-10T17:31:31.875Z,6.68
2022-09-10T17:34:21.774Z,5.05
2022-09-10T17:37:11.476Z,3.55
2022-09-10T17:40:01.134Z,2.05
2022-09-10T17:42:51.030Z,3.55
2022-09-10T17:45:40.956Z,5.68
2022-09-10T17:48:31.572Z,12.38
2022-09-10T17:51:23.114Z,13.32
2022-09-10T17:54:13.269Z,10.70
2022-09-10T17:57:04.541Z,8.80
2022-09-10T17:59:54.499Z,11.82
2022-09-10T18:02:43.605Z,5.35
2022-09-10T18:05:37.333Z,5.57
2022-09-10T18:08:26.148Z,2.85
2022-09-10T18:11:18.257Z,2.85
2022-09-10T18:14:08.572Z,4.63
2022-09-10T18:16:58.447Z,2.83
2022-09-10T18:19:47.024Z,2.42
2022-09-10T18:22:38.222Z,3.08
2022-09-10T18:25:31.001Z,4.07
2022-09-10T18:28:20.073Z,3.25
2022-09-10T18:31:09.339Z,5.10
2022-09-10T18:33:58.977Z,5.38
2022-09-10T18:36:47.778Z,5.95
2022-09-10T18:39:38.039Z,3.92
2022-09-10T18:42:27.755Z,3.20
2022-09-10T18:45:17.409Z,5.50
2022-09-10T18:48:06.392Z,5.72
2022-09-10T18:50:55.718Z,5.78
2022-09-10T18:53:45.944Z,3.58
2022-09-10T18:56:36.864Z,4.05
2022-09-10T18:59:26.837Z,7.30
2022-09-10T19:02:18.247Z,3.60
2022-09-10T19:05:11.654Z,4.47
2022-09-10T19:08:01.693Z,8.85
2022-09-10T19:10:51.274Z,2.95
2022-09-10T19:13:42.070Z,3.67
2022-09-10T19:16:32.963Z,5.38
2022-09-10T19:19:22.624Z,5.22
2022-09-10T19:22:11.840Z,5.70
2022-09-10T19:25:01.388Z,4.60
2022-09-10T19:27:50.709Z,4.43
2022-09-10T19:30:41.859Z,9.00
2022-09-10T19:33:32.449Z,2.97
2022-09-10T19:36:21.632Z,5.90
2022-09-10T19:39:12.702Z,4.45
2022-09-10T19:42:01.629Z,3.88
2022-09-10T19:44:50.853Z,3.75
2022-09-10T19:47:41.276Z,6.32
2022-09-10T19:50:30.319Z,3.67
2022-09-10T19:53:19.226Z,5.15
2022-09-10T19:56:09.722Z,6.93
2022-09-10T19:59:00.819Z,5.45
2022-09-10T20:01:49.977Z,2.67
2022-09-10T20:04:40.252Z,5.82
2022-09-10T20:07:31.448Z,6.07
2022-09-10T20:10:20.560Z,4.85
2022-09-10T20:13:10.179Z,3.78
2022-09-10T20:16:01.869Z,4.13
2022-09-10T20:18:51.337Z,5.72
2022-09-10T20:21:42.374Z,3.90
2022-09-10T20:24:32.120Z,5.20
2022-09-10T20:27:21.159Z,4.78
2022-09-10T20:30:10.922Z,7.85
2022-09-10T20:33:01.708Z,2.40
2022-09-10T20:35:50.984Z,7.10
2022-09-10T20:38:43.313Z,3.92
2022-09-10T20:41:32.145Z,4.63
2022-09-10T20:44:21.242Z,5.85
2022-09-10T20:47:10.547Z,7.20
2022-09-10T20:49:59.433Z,6.32
2022-09-10T20:52:48.951Z,4.05
2022-09-10T20:55:39.694Z,2.72
2022-09-10T20:58:28.781Z,4.05
2022-09-10T21:01:20.541Z,3.55
2022-09-10T21:04:10.570Z,2.50
2022-09-10T21:07:00.662Z,4.85
2022-09-10T21:09:49.726Z,6.60
2022-09-10T21:12:40.314Z,3.53
2022-09-10T21:15:30.247Z,4.03
2022-09-10T21:18:19.172Z,4.18
2022-09-10T21:21:10.323Z,3.90
2022-09-10T21:24:01.089Z,4.18
2022-09-10T21:26:50.743Z,2.88
2022-09-10T21:29:41.751Z,3.42
2022-09-10T21:32:31.105Z,4.50
2022-09-10T21:35:20.358Z,2.47
2022-09-10T21:38:09.994Z,3.28
2022-09-10T21:40:59.599Z,5.32
2022-09-10T21:43:49.250Z,3.47
2022-09-10T21:46:40.695Z,4.13
2022-09-10T21:49:29.840Z,3.80
2022-09-10T21:52:19.315Z,4.05
2022-09-10T21:55:08.676Z,4.03
2022-09-10T21:57:58.261Z,5.20
2022-09-10T22:00:47.162Z,4.57
2022-09-10T22:03:37.505Z,3.22
2022-09-10T22:06:27.842Z,7.32
2022-09-10T22:09:17.849Z,2.80
2022-09-10T22:12:07.448Z,2.08
2022-09-10T22:14:57.114Z,5.25
2022-09-10T22:17:46.171Z,6.32
2022-09-10T22:20:37.752Z,2.90
2022-09-10T22:23:26.968Z,3.35
2022-09-10T22:26:17.068Z,1.52
2022-09-10T22:29:06.461Z,3.72
2022-09-10T22:31:55.736Z,5.40
2022-09-10T22:34:46.618Z,5.47
2022-09-10T22:37:37.179Z,1.95
2022-09-10T22:40:26.420Z,7.78
2022-09-10T22:43:15.785Z,2.58
2022-09-10T22:46:07.175Z,6.35
2022-09-10T22:48:57.334Z,3.75
2022-09-10T22:51:46.622Z,2.65
2022-09-10T22:54:36.764Z,2.33
2022-09-10T22:57:25.736Z,2.42
2022-09-10T23:00:15.586Z,3.15
2022-09-10T23:03:06.328Z,2.50
2022-09-10T23:06:04.151Z,2.80
2022-09-10T23:08:54.453Z,2.25
2022-09-10T23:11:45.390Z,3.08
2022-09-10T23:14:34.923Z,2.83
2022-09-10T23:17:23.865Z,3.90
2022-09-10T23:20:13.847Z,2.33
2022-09-10T23:23:03.735Z,3.53
2022-09-10T23:25:52.885Z,2.67
2022-09-10T23:28:43.723Z,5.18
2022-09-10T23:31:33.687Z,4.25
2022-09-10T23:34:23.726Z,2.55
2022-09-10T23:37:12.938Z,4.05
2022-09-10T23:40:03.499Z,2.70
2022-09-10T23:42:52.917Z,5.13
2022-09-10T23:45:44.523Z,3.03
2022-09-10T23:48:33.680Z,4.88
2022-09-10T23:51:23.085Z,2.88
2022-09-10T23:54:12.979Z,2.67
2022-09-10T23:57:02.822Z,1.52
2022-09-10T23:59:52.611Z,5.93
